Time;durP1;ratioP1;P1;durP2;ratioP2;P2;SDS_P1;SDS_P2;PMS_P1;PMS_P2;Temp;Humidity;BMP_temperature;BMP_pressure;BME280_temperature;BME280_humidity;BME280_pressure;Samples;Min_cycle;Max_cycle;Signal;HPM_P1;HPM_P2
2022/08/28 00:02:22;;;;;;;3.75;3.35;;;16.50;99.90;;;;;;4833898;29;20049;-83
2022/08/28 00:05:07;;;;;;;4.13;2.85;;;16.60;99.90;;;;;;4825244;29;20074;-84
2022/08/28 00:07:41;;;;;;;3.38;3.08;;;16.60;99.90;;;;;;4833357;29;20069;-83
2022/08/28 00:10:38;;;;;;;4.07;3.42;;;16.60;99.90;;;;;;4805135;29;20428;-84
2022/08/28 00:13:30;;;;;;;4.30;3.65;;;16.60;99.90;;;;;;4811986;29;20094;-84
2022/08/28 00:16:09;;;;;;;4.10;3.63;;;16.50;99.90;;;;;;4807424;29;20570;-83
2022/08/28 00:18:48;;;;;;;10.60;3.20;;;16.60;99.90;;;;;;4812323;29;20054;-83
2022/08/28 00:21:33;;;;;;;4.65;4.22;;;16.60;99.90;;;;;;4807385;29;20053;-83
2022/08/28 00:24:06;;;;;;;23.48;4.90;;;16.60;99.90;;;;;;4807370;29;20064;-83
2022/08/28 00:29:23;;;;;;;3.97;3.63;;;16.50;99.90;;;;;;4837496;29;20495;-83
2022/08/28 00:31:55;;;;;;;4.82;3.25;;;16.50;99.90;;;;;;4820075;29;20046;-83
2022/08/28 00:34:33;;;;;;;5.07;2.80;;;16.50;99.90;;;;;;4819203;29;20053;-83
2022/08/28 00:37:17;;;;;;;3.10;2.78;;;16.50;99.90;;;;;;4855698;23;20147;-84
2022/08/28 00:39:48;;;;;;;5.75;3.45;;;16.40;99.90;;;;;;4823486;29;20061;-83
2022/08/28 00:42:16;;;;;;;3.92;2.72;;;16.50;99.90;;;;;;4840989;29;20088;-82
2022/08/28 00:44:50;;;;;;;3.47;3.17;;;16.40;99.90;;;;;;4872789;29;20057;-83
2022/08/28 00:47:25;;;;;;;5.43;2.78;;;16.40;99.90;;;;;;4859717;29;20697;-83
2022/08/28 00:49:58;;;;;;;5.18;2.95;;;16.40;99.90;;;;;;4875068;29;20044;-83
2022/08/28 00:53:05;;;;;;;3.35;3.05;;;16.40;99.90;;;;;;4855565;29;20064;-83
2022/08/28 00:55:44;;;;;;;3.53;2.53;;;16.40;99.90;;;;;;4874796;29;20057;-83
2022/08/28 00:59:06;;;;;;;3.35;3.05;;;16.40;99.90;;;;;;4859042;29;20048;-83
2022/08/28 01:01:59;;;;;;;3.88;3.05;;;16.40;99.90;;;;;;4867642;29;20060;-84
2022/08/28 01:10:18;;;;;;;5.60;3.05;;;16.40;99.90;;;;;;4827472;29;21430;-83
2022/08/28 01:24:51;;;;;;;4.97;3.78;;;16.30;99.90;;;;;;4927317;23;20040;31
2022/08/28 01:43:18;;;;;;;4.45;3.83;;;16.20;99.90;;;;;;4778958;29;20045;-84
2022/08/28 01:46:36;;;;;;;4.63;2.92;;;16.20;99.90;;;;;;4829492;29;20535;-83
2022/08/28 01:49:23;;;;;;;3.33;2.70;;;16.20;99.90;;;;;;4810839;29;20065;-83
2022/08/28 01:52:36;;;;;;;3.53;3.22;;;16.10;99.90;;;;;;4797236;29;20404;-84
2022/08/28 01:55:15;;;;;;;3.43;2.27;;;16.00;99.90;;;;;;4818404;29;20056;-83
2022/08/28 01:58:00;;;;;;;4.50;3.67;;;16.10;99.90;;;;;;4807032;29;20047;-83
2022/08/28 02:00:29;;;;;;;3.17;2.85;;;16.10;99.90;;;;;;4806715;29;20049;-83
2022/08/28 02:03:05;;;;;;;3.83;3.42;;;16.10;99.90;;;;;;4820597;29;20058;-83
2022/08/28 02:05:46;;;;;;;3.72;2.75;;;16.10;99.90;;;;;;4835238;29;20899;-83
2022/08/28 02:08:43;;;;;;;3.95;3.65;;;16.10;99.90;;;;;;4840392;29;20057;-83
2022/08/28 02:11:12;;;;;;;3.08;2.80;;;16.10;99.90;;;;;;4809961;29;20053;-82
2022/08/28 02:13:44;;;;;;;3.40;3.13;;;16.00;99.90;;;;;;4870100;29;20038;-83
2022/08/28 02:16:25;;;;;;;3.20;2.90;;;16.00;99.90;;;;;;4846169;29;20053;-83
2022/08/28 02:23:28;;;;;;;4.15;3.47;;;15.90;99.90;;;;;;4828993;29;20052;-83
2022/08/28 03:26:52;;;;;;;1.92;1.80;;;15.90;99.90;;;;;;4729285;29;20064;-84
2022/08/28 03:30:14;;;;;;;4.70;4.07;;;15.80;99.90;;;;;;4750500;30;20079;-83
2022/08/28 03:33:00;;;;;;;6.82;3.47;;;16.20;99.90;;;;;;4751418;30;20055;-84
2022/08/28 03:36:09;;;;;;;5.28;4.13;;;15.90;99.90;;;;;;4756611;29;20062;-83
2022/08/28 03:39:03;;;;;;;5.47;4.05;;;15.90;99.90;;;;;;4795564;29;20539;-82
2022/08/28 03:41:46;;;;;;;5.78;4.55;;;15.90;99.90;;;;;;4836742;29;20381;-84
2022/08/28 03:49:44;;;;;;;5.80;4.75;;;15.90;99.90;;;;;;4840606;29;20116;-84
2022/08/28 03:56:57;;;;;;;7.85;5.78;;;15.90;99.90;;;;;;4835311;29;20069;-83
2022/08/28 04:00:09;;;;;;;6.25;5.05;;;16.00;99.90;;;;;;4850127;29;20069;-83
2022/08/28 04:03:55;;;;;;;5.80;4.25;;;15.90;99.90;;;;;;4840734;29;20055;-83
2022/08/28 04:12:37;;;;;;;6.47;4.47;;;16.00;99.90;;;;;;4739949;30;20064;-82
2022/08/28 04:16:07;;;;;;;9.05;5.20;;;15.90;99.90;;;;;;4743372;30;20132;-82
2022/08/28 04:41:30;;;;;;;6.75;3.65;;;15.90;99.90;;;;;;4837338;29;20314;-83
2022/08/28 04:50:24;;;;;;;6.28;5.13;;;16.00;99.90;;;;;;4764559;30;20074;-85
2022/08/28 04:54:06;;;;;;;6.55;5.43;;;16.00;99.90;;;;;;4805462;29;20054;-85
2022/08/28 04:56:52;;;;;;;6.85;4.97;;;16.20;99.90;;;;;;4743786;29;20070;-84
2022/08/28 05:05:36;;;;;;;4.18;3.33;;;16.10;99.90;;;;;;4870298;29;20039;-84
2022/08/28 05:13:38;;;;;;;10.20;3.97;;;16.10;99.90;;;;;;4787553;29;20047;-86
2022/08/28 05:16:24;;;;;;;6.40;4.20;;;16.20;99.90;;;;;;4855299;29;20052;-85
2022/08/28 05:20:39;;;;;;;7.38;4.65;;;16.20;99.90;;;;;;4790663;29;20057;-84
2022/08/28 05:30:01;;;;;;;7.95;4.85;;;16.20;99.90;;;;;;4819562;29;20089;-84
2022/08/28 05:37:09;;;;;;;5.85;4.88;;;16.50;99.90;;;;;;4834921;29;20078;-84
2022/08/28 05:44:26;;;;;;;7.90;4.72;;;16.30;99.90;;;;;;4850133;29;20564;-84
2022/08/28 05:48:32;;;;;;;;;;;;;;;;;;;;;
2022/08/28 06:00:17;;;;;;;6.55;4.72;;;16.40;99.90;;;;;;4853780;29;20083;-85
2022/08/28 06:04:56;;;;;;;8.40;6.30;;;16.40;99.90;;;;;;4738014;29;20054;-84
2022/08/28 06:30:03;;;;;;;9.70;6.65;;;16.70;99.90;;;;;;4840844;29;20425;-84
2022/08/28 06:58:50;;;;;;;8.70;6.60;;;16.80;99.90;;;;;;5058991;23;20060;-90
2022/08/28 07:02:50;;;;;;;11.90;8.55;;;16.80;99.90;;;;;;4896801;29;20067;-90
2022/08/28 08:16:27;;;;;;;15.73;9.63;;;17.00;99.90;;;;;;5947675;24;20036;31
2022/08/28 08:35:38;;;;;;;15.35;10.25;;;17.20;99.90;;;;;;4873129;29;20065;-85
2022/08/28 08:47:57;;;;;;;11.00;8.23;;;17.10;99.90;;;;;;4857647;29;20049;-90
2022/08/28 08:52:06;;;;;;;17.45;10.98;;;17.10;99.90;;;;;;4814132;29;20046;-92
2022/08/28 09:02:36;;;;;;;13.18;9.40;;;17.10;99.90;;;;;;4782673;29;20060;-91
2022/08/28 09:06:01;;;;;;;10.98;8.75;;;17.20;99.90;;;;;;4707584;29;20068;-89
2022/08/28 09:26:13;;;;;;;20.17;11.15;;;17.20;99.90;;;;;;5114137;23;20064;-93
2022/08/28 09:30:16;;;;;;;17.25;9.48;;;17.30;99.90;;;;;;4886640;29;20048;-93
2022/08/28 09:48:08;;;;;;;12.50;9.15;;;17.30;99.90;;;;;;4897586;29;20360;-95
2022/08/28 09:51:44;;;;;;;14.18;11.82;;;17.40;99.90;;;;;;4870752;29;20064;-92
2022/08/28 09:54:41;;;;;;;14.13;10.57;;;17.40;99.90;;;;;;4868678;29;20504;-93
2022/08/28 09:57:12;;;;;;;13.85;9.73;;;17.40;99.90;;;;;;4863062;29;20526;-89
2022/08/28 09:59:41;;;;;;;12.95;10.95;;;17.40;99.90;;;;;;4869470;29;20779;-88
2022/08/28 10:02:23;;;;;;;15.65;10.55;;;17.50;99.90;;;;;;4869474;29;20052;-89
2022/08/28 10:05:15;;;;;;;12.98;10.52;;;17.40;99.90;;;;;;4849636;29;20064;-88
2022/08/28 10:08:24;;;;;;;20.48;11.50;;;17.40;99.90;;;;;;4877956;29;20413;-91
2022/08/28 10:11:22;;;;;;;17.88;10.18;;;17.50;99.90;;;;;;4862259;29;20888;-92
2022/08/28 10:14:19;;;;;;;13.13;10.82;;;17.50;99.90;;;;;;4878935;29;20488;-85
2022/08/28 10:17:14;;;;;;;17.88;11.65;;;17.50;99.90;;;;;;4878543;29;20056;-91
2022/08/28 10:20:36;;;;;;;25.07;12.97;;;17.50;99.90;;;;;;4854159;29;20045;-93
2022/08/28 10:23:41;;;;;;;18.65;12.88;;;17.60;99.90;;;;;;4861304;29;20052;-94
2022/08/28 10:27:22;;;;;;;15.88;10.63;;;17.50;99.90;;;;;;4866199;29;20513;-95
2022/08/28 10:31:14;;;;;;;14.80;10.88;;;17.40;99.90;;;;;;4861507;29;20126;-91
2022/08/28 10:34:14;;;;;;;17.25;10.75;;;17.30;99.90;;;;;;4852093;29;20060;-89
2022/08/28 10:36:51;;;;;;;20.17;12.10;;;17.40;99.90;;;;;;4866213;29;20059;-88
2022/08/28 10:39:56;;;;;;;22.10;13.27;;;17.40;99.90;;;;;;4867630;29;20474;-88
2022/08/28 10:42:55;;;;;;;22.50;11.77;;;17.30;99.90;;;;;;4874261;29;20526;-88
2022/08/28 10:45:25;;;;;;;20.48;16.20;;;17.30;99.90;;;;;;4880276;29;20053;-88
2022/08/28 10:48:08;;;;;;;20.52;13.27;;;17.30;99.90;;;;;;4875743;29;20044;-86
2022/08/28 10:50:49;;;;;;;20.05;14.07;;;17.40;99.90;;;;;;4866212;29;20040;-92
2022/08/28 10:54:01;;;;;;;;;;;;;;;;;;;;;
2022/08/28 10:57:11;;;;;;;16.25;11.88;;;17.50;99.90;;;;;;4896740;29;20040;-92
2022/08/28 10:59:50;;;;;;;16.42;11.48;;;17.50;99.90;;;;;;4876839;29;20529;-90
2022/08/28 11:21:12;;;;;;;14.23;10.95;;;17.80;99.90;;;;;;5936485;23;20027;-90
2022/08/28 11:31:48;;;;;;;18.17;12.20;;;17.60;99.90;;;;;;4901131;29;20056;-92
2022/08/28 11:34:58;;;;;;;24.13;12.98;;;17.60;99.90;;;;;;4870493;29;20044;-92
2022/08/28 11:37:39;;;;;;;22.57;12.43;;;17.60;99.90;;;;;;4870539;29;20387;-93
2022/08/28 11:41:04;;;;;;;19.90;12.55;;;17.60;99.90;;;;;;4866207;29;20108;-92
2022/08/28 11:44:11;;;;;;;21.50;12.60;;;17.50;99.90;;;;;;4806640;29;20046;-93
2022/08/28 11:47:26;;;;;;;18.80;10.50;;;17.50;99.90;;;;;;4760392;29;20055;-93
2022/08/28 11:50:01;;;;;;;21.15;14.48;;;17.60;99.90;;;;;;4765469;29;20058;-90
2022/08/28 11:52:58;;;;;;;26.75;11.98;;;17.60;99.90;;;;;;4806496;29;20065;-89
2022/08/28 11:56:00;;;;;;;21.55;12.25;;;17.60;99.90;;;;;;4827981;29;20057;-87
2022/08/28 11:58:38;;;;;;;25.48;13.20;;;17.70;99.90;;;;;;4863088;29;20053;-88
2022/08/28 12:01:10;;;;;;;16.70;12.30;;;17.70;99.90;;;;;;4887590;29;20423;-87
2022/08/28 12:03:54;;;;;;;22.55;9.32;;;17.70;99.90;;;;;;4863767;29;20812;-87
2022/08/28 12:07:18;;;;;;;13.25;9.00;;;17.60;99.90;;;;;;4861575;29;20045;-91
2022/08/28 12:19:42;;;;;;;14.45;9.77;;;17.40;99.90;;;;;;4869072;29;20048;-94
2022/08/28 12:22:38;;;;;;;21.10;11.77;;;17.40;99.90;;;;;;4860990;29;20048;-87
2022/08/28 12:25:26;;;;;;;17.88;12.57;;;17.60;99.90;;;;;;4868346;29;20052;-89
2022/08/28 12:28:08;;;;;;;18.20;12.05;;;17.70;99.90;;;;;;4852480;29;20057;-87
2022/08/28 12:36:25;;;;;;;23.38;15.68;;;17.80;99.90;;;;;;4846555;29;20076;-92
2022/08/28 12:39:22;;;;;;;;;;;;;;;;;;;;;
2022/08/28 12:42:16;;;;;;;19.10;13.48;;;17.90;99.90;;;;;;4867184;23;20420;-93
2022/08/28 12:49:28;;;;;;;17.75;12.02;;;18.00;99.90;;;;;;4844535;29;20397;-93
2022/08/28 12:52:16;;;;;;;28.60;17.50;;;18.10;99.90;;;;;;4845493;29;20065;-89
2022/08/28 12:54:48;;;;;;;22.00;14.10;;;18.20;99.90;;;;;;4843009;29;20839;-89
2022/08/28 12:57:19;;;;;;;18.92;14.38;;;18.20;99.90;;;;;;4832839;29;20072;-92
2022/08/28 12:59:48;;;;;;;;;;;18.10;99.90;;;;;;4836721;29;20065;-91
2022/08/28 13:02:32;;;;;;;24.85;16.73;;;18.20;99.90;;;;;;4837971;29;19928;-89
2022/08/28 13:05:09;;;;;;;23.40;13.70;;;18.20;99.90;;;;;;4823412;29;20062;-92
2022/08/28 13:07:46;;;;;;;27.70;14.25;;;18.20;99.90;;;;;;4808671;29;20083;-90
2022/08/28 13:10:33;;;;;;;24.40;16.45;;;18.20;99.90;;;;;;4803028;29;20868;-94
2022/08/28 13:13:45;;;;;;;25.00;15.43;;;18.30;99.90;;;;;;4803551;29;20069;-89
2022/08/28 13:16:41;;;;;;;22.88;14.95;;;18.30;99.90;;;;;;4795638;29;20046;-88
2022/08/28 13:19:27;;;;;;;26.35;15.02;;;18.30;99.90;;;;;;4787788;29;20050;-89
2022/08/28 13:22:02;;;;;;;24.17;15.80;;;18.30;99.90;;;;;;4802772;29;20046;-89
2022/08/28 13:24:29;;;;;;;19.75;14.90;;;18.30;99.90;;;;;;4787973;29;20058;-89
2022/08/28 13:27:05;;;;;;;23.90;15.63;;;18.40;99.90;;;;;;4791754;29;20059;-87
2022/08/28 13:29:35;;;;;;;30.10;15.75;;;18.30;99.90;;;;;;4787202;29;20047;-91
2022/08/28 13:32:05;;;;;;;24.00;18.45;;;18.30;99.90;;;;;;4786493;29;20513;-85
2022/08/28 13:34:35;;;;;;;22.07;15.20;;;18.30;99.90;;;;;;4799476;29;20047;-85
2022/08/28 13:37:05;;;;;;;26.70;15.02;;;18.30;99.90;;;;;;4800203;29;20304;-85
2022/08/28 13:39:46;;;;;;;22.70;15.48;;;18.30;99.90;;;;;;4832307;29;20061;-85
2022/08/28 13:42:16;;;;;;;20.58;14.50;;;18.40;99.90;;;;;;4836326;29;20054;-78
2022/08/28 13:44:52;;;;;;;26.45;15.98;;;18.50;99.90;;;;;;4848819;29;20076;-85
2022/08/28 13:47:20;;;;;;;20.55;14.95;;;18.50;99.90;;;;;;4836889;29;20060;-86
2022/08/28 13:49:47;;;;;;;21.00;15.88;;;18.50;99.90;;;;;;4836875;29;20064;-84
2022/08/28 13:52:16;;;;;;;26.63;15.05;;;18.50;99.90;;;;;;4850182;29;20495;-84
2022/08/28 13:54:46;;;;;;;21.23;14.40;;;18.50;99.90;;;;;;4855271;29;20045;-84
2022/08/28 13:57:15;;;;;;;23.60;14.63;;;18.50;99.90;;;;;;4870683;29;20057;-84
2022/08/28 13:59:43;;;;;;;23.63;16.30;;;18.60;99.90;;;;;;4848740;29;20050;-84
2022/08/28 14:05:00;;;;;;;18.73;13.57;;;18.60;99.90;;;;;;4839169;29;20058;-84
2022/08/28 14:07:28;;;;;;;30.35;16.35;;;18.80;99.90;;;;;;4841270;29;20809;-84
2022/08/28 14:09:56;;;;;;;21.63;15.32;;;18.80;99.90;;;;;;4841647;29;20073;-84
2022/08/28 14:12:25;;;;;;;22.45;13.40;;;18.80;99.90;;;;;;4841053;29;20492;-84
2022/08/28 14:15:09;;;;;;;22.45;14.38;;;18.80;99.90;;;;;;4841841;29;20424;-84
2022/08/28 14:17:37;;;;;;;18.92;14.57;;;18.90;99.90;;;;;;4841779;29;20072;-84
2022/08/28 14:20:06;;;;;;;22.48;15.55;;;19.10;99.90;;;;;;4842038;29;20053;-84
2022/08/28 14:22:34;;;;;;;20.27;12.95;;;19.10;99.90;;;;;;4840390;29;20050;-83
2022/08/28 14:25:03;;;;;;;16.25;13.35;;;18.90;99.90;;;;;;4841155;29;20061;-86
2022/08/28 14:27:31;;;;;;;18.65;11.27;;;18.90;99.90;;;;;;4839986;29;20069;-86
2022/08/28 14:30:00;;;;;;;19.77;13.40;;;19.00;99.90;;;;;;4840447;29;20065;-84
2022/08/28 14:32:28;;;;;;;26.85;13.48;;;19.00;99.90;;;;;;4840580;29;20089;-86
2022/08/28 14:34:55;;;;;;;18.75;13.63;;;19.30;99.90;;;;;;4824986;29;20050;-84
2022/08/28 14:37:23;;;;;;;18.50;12.45;;;19.50;99.90;;;;;;4841194;29;20836;-84
2022/08/28 14:39:51;;;;;;;17.42;13.40;;;19.70;99.90;;;;;;4841681;29;20054;-87
2022/08/28 14:42:19;;;;;;;19.40;13.63;;;19.60;99.90;;;;;;4873374;29;20413;-84
2022/08/28 14:44:47;;;;;;;16.23;11.60;;;19.50;99.90;;;;;;4843614;29;20064;-84
2022/08/28 14:47:15;;;;;;;16.58;12.70;;;19.50;99.90;;;;;;4873745;29;20057;-85
2022/08/28 14:49:43;;;;;;;18.75;13.88;;;19.30;99.90;;;;;;4873588;29;20061;-85
2022/08/28 14:52:11;;;;;;;30.13;14.05;;;19.30;99.90;;;;;;4859062;29;20403;-85
2022/08/28 14:54:39;;;;;;;15.77;10.80;;;19.20;99.90;;;;;;4873488;29;20052;-84
2022/08/28 14:57:12;;;;;;;18.70;14.35;;;19.10;99.90;;;;;;4858195;29;20065;-85
2022/08/28 14:59:49;;;;;;;15.35;10.32;;;19.00;99.90;;;;;;4858690;29;20053;-86
2022/08/28 15:02:17;;;;;;;16.77;11.85;;;18.90;99.90;;;;;;4843013;29;20054;-86
2022/08/28 15:04:45;;;;;;;26.20;14.30;;;18.90;99.90;;;;;;4843690;29;20496;-86
2022/08/28 15:07:14;;;;;;;16.95;11.38;;;18.90;99.90;;;;;;4858378;29;20064;-86
2022/08/28 15:09:42;;;;;;;20.85;13.43;;;18.80;99.90;;;;;;4857854;29;20060;-86
2022/08/28 15:12:10;;;;;;;17.45;12.85;;;18.80;99.90;;;;;;4858825;29;20064;-86
2022/08/28 15:14:48;;;;;;;20.45;13.30;;;18.80;99.90;;;;;;4858235;29;20512;-86
2022/08/28 15:17:24;;;;;;;16.92;11.35;;;18.80;99.90;;;;;;4872750;29;20053;-86
2022/08/28 15:20:02;;;;;;;13.48;10.75;;;18.80;99.90;;;;;;4859259;29;20049;-86
2022/08/28 15:22:30;;;;;;;22.63;15.45;;;18.80;99.90;;;;;;4857580;29;20057;-87
2022/08/28 15:24:58;;;;;;;16.73;11.95;;;18.80;99.90;;;;;;4858231;29;20072;-87
2022/08/28 15:27:25;;;;;;;20.35;15.05;;;18.70;99.90;;;;;;4859295;29;20077;-87
2022/08/28 15:29:53;;;;;;;14.85;11.40;;;18.70;99.90;;;;;;4857974;29;20420;-86
2022/08/28 15:32:21;;;;;;;19.50;12.57;;;18.70;99.90;;;;;;4843171;29;20057;-86
2022/08/28 15:34:50;;;;;;;13.85;11.10;;;18.70;99.90;;;;;;4842499;29;20479;-87
2022/08/28 15:37:18;;;;;;;20.83;14.73;;;18.70;99.90;;;;;;4857781;29;20049;-87
2022/08/28 15:42:32;;;;;;;14.27;10.25;;;18.70;99.90;;;;;;4857840;29;20427;-87
2022/08/28 15:45:00;;;;;;;15.73;10.88;;;18.80;99.90;;;;;;4842657;29;20527;-86
2022/08/28 15:47:27;;;;;;;18.65;13.18;;;18.80;99.90;;;;;;4842395;29;20064;-86
2022/08/28 15:49:56;;;;;;;17.88;11.45;;;18.80;99.90;;;;;;4841909;29;20042;-85
2022/08/28 15:52:24;;;;;;;17.10;11.13;;;18.70;99.90;;;;;;4857847;29;20807;-86
2022/08/28 15:54:52;;;;;;;16.85;11.18;;;18.70;99.90;;;;;;4873036;29;20045;-86
2022/08/28 15:57:20;;;;;;;20.30;13.60;;;18.70;99.90;;;;;;4857608;29;20393;-86
2022/08/28 15:59:48;;;;;;;16.08;10.52;;;18.70;99.90;;;;;;4857142;29;20053;-87
2022/08/28 16:02:19;;;;;;;16.35;11.95;;;18.60;99.90;;;;;;4842597;29;20049;-85
2022/08/28 16:04:48;;;;;;;27.60;14.63;;;18.60;99.90;;;;;;4857896;29;20069;-86
2022/08/28 16:07:18;;;;;;;14.93;11.65;;;18.50;99.90;;;;;;4842670;29;20069;-85
2022/08/28 16:09:47;;;;;;;22.67;16.75;;;18.60;99.90;;;;;;4858046;29;20548;-85
2022/08/28 16:12:17;;;;;;;18.98;12.73;;;18.60;99.90;;;;;;4843882;29;20046;-85
2022/08/28 16:14:49;;;;;;;20.33;13.02;;;18.60;99.90;;;;;;4843026;29;20053;-87
2022/08/28 16:17:17;;;;;;;20.10;14.27;;;18.70;99.90;;;;;;4830104;29;20060;-85
2022/08/28 16:19:46;;;;;;;15.63;11.93;;;18.80;99.90;;;;;;4843304;29;20064;-84
2022/08/28 16:22:15;;;;;;;20.02;12.02;;;19.00;99.90;;;;;;4858423;29;20741;-88
2022/08/28 16:24:46;;;;;;;14.77;12.98;;;19.10;99.90;;;;;;4857443;29;20054;-86
2022/08/28 16:27:16;;;;;;;18.73;11.65;;;19.30;99.90;;;;;;4857879;29;20504;-90
2022/08/28 16:29:44;;;;;;;16.15;11.50;;;19.30;99.90;;;;;;4844985;29;20042;-89
2022/08/28 16:32:16;;;;;;;13.60;11.52;;;19.30;99.90;;;;;;4843261;29;20488;-87
2022/08/28 16:34:46;;;;;;;12.17;10.23;;;19.20;99.90;;;;;;4842122;29;20049;-88
2022/08/28 16:37:18;;;;;;;16.63;11.30;;;19.10;99.90;;;;;;4871833;29;20314;-85
2022/08/28 16:39:54;;;;;;;16.95;10.50;;;19.00;99.90;;;;;;4841448;29;20056;-86
2022/08/28 16:42:25;;;;;;;18.50;12.82;;;18.90;99.90;;;;;;4838593;29;20556;-89
2022/08/28 16:45:00;;;;;;;19.50;11.85;;;18.80;99.90;;;;;;4854910;29;20844;-88
2022/08/28 16:47:30;;;;;;;16.80;12.48;;;18.80;99.90;;;;;;4823904;29;20057;-87
2022/08/28 16:50:11;;;;;;;14.30;11.05;;;19.00;99.90;;;;;;4839516;29;20057;-87
2022/08/28 16:52:39;;;;;;;15.57;11.30;;;19.00;99.90;;;;;;4831639;29;20057;-88
2022/08/28 16:55:08;;;;;;;12.38;9.38;;;18.90;99.90;;;;;;4822954;29;20050;-85
2022/08/28 16:57:37;;;;;;;16.48;11.23;;;18.80;99.90;;;;;;4838163;29;20532;-85
2022/08/28 17:00:08;;;;;;;18.85;11.55;;;18.70;99.90;;;;;;4853150;29;20402;-86
2022/08/28 17:02:36;;;;;;;18.42;11.40;;;18.70;99.90;;;;;;4822892;29;20080;-85
2022/08/28 17:05:05;;;;;;;14.20;10.15;;;18.80;99.90;;;;;;4837962;29;20407;-86
2022/08/28 17:07:36;;;;;;;13.07;10.02;;;18.80;99.90;;;;;;4838081;29;20058;-85
2022/08/28 17:10:05;;;;;;;11.63;10.40;;;18.80;99.90;;;;;;4838816;29;20057;-85
2022/08/28 17:12:33;;;;;;;14.02;10.02;;;18.80;99.90;;;;;;4839396;29;20492;-85
2022/08/28 17:15:01;;;;;;;14.60;10.18;;;19.00;99.90;;;;;;4827848;29;20049;-85
2022/08/28 17:17:29;;;;;;;11.82;8.98;;;19.20;99.90;;;;;;4840607;29;20049;-83
2022/08/28 17:19:57;;;;;;;10.80;8.63;;;19.40;99.90;;;;;;4856166;29;20054;-85
2022/08/28 17:22:31;;;;;;;14.07;8.95;;;19.50;99.90;;;;;;4871034;29;20064;-85
2022/08/28 17:24:59;;;;;;;12.38;9.00;;;19.40;99.90;;;;;;4856662;29;20084;-85
2022/08/28 17:27:27;;;;;;;7.80;6.47;;;19.20;99.90;;;;;;4858321;29;20065;-90
2022/08/28 17:29:55;;;;;;;11.45;7.05;;;19.00;99.90;;;;;;4842284;29;20053;-91
2022/08/28 17:32:23;;;;;;;10.45;7.97;;;18.80;99.90;;;;;;4858963;29;20060;-90
2022/08/28 17:34:52;;;;;;;8.88;7.97;;;18.70;99.90;;;;;;4842951;29;20050;-91
2022/08/28 17:37:19;;;;;;;17.17;9.90;;;18.60;99.90;;;;;;4858154;29;20049;-91
2022/08/28 17:39:47;;;;;;;10.38;8.43;;;18.60;99.90;;;;;;4858441;29;20064;-91
2022/08/28 17:42:15;;;;;;;12.80;10.38;;;18.60;99.90;;;;;;4843683;29;20057;-91
2022/08/28 17:44:54;;;;;;;12.27;9.30;;;18.60;99.90;;;;;;4860038;29;20061;-91
2022/08/28 17:47:21;;;;;;;11.85;9.82;;;18.60;99.90;;;;;;4844392;29;20065;-91
2022/08/28 17:50:01;;;;;;;10.95;9.38;;;18.50;99.90;;;;;;4859594;29;20046;-91
2022/08/28 17:52:29;;;;;;;10.65;9.07;;;18.60;99.90;;;;;;4844423;29;20072;-91
2022/08/28 17:54:57;;;;;;;10.75;8.57;;;18.50;99.90;;;;;;4858498;29;20057;-90
2022/08/28 17:57:27;;;;;;;11.70;8.85;;;18.40;99.90;;;;;;4859068;29;20064;-91
2022/08/28 17:59:57;;;;;;;12.00;8.65;;;18.30;99.90;;;;;;4859737;29;20060;-90
2022/08/28 18:02:25;;;;;;;11.88;8.63;;;18.20;99.90;;;;;;4859299;29;20053;-91
2022/08/28 18:04:53;;;;;;;13.02;10.30;;;18.20;99.90;;;;;;4858731;29;20057;-89
2022/08/28 18:07:21;;;;;;;11.20;8.60;;;18.10;99.90;;;;;;4856653;29;20042;-90
2022/08/28 18:09:50;;;;;;;12.18;9.23;;;18.20;99.90;;;;;;4860301;29;20050;-87
2022/08/28 18:12:18;;;;;;;11.00;9.50;;;18.10;99.90;;;;;;4857124;29;20061;-91
2022/08/28 18:14:46;;;;;;;20.17;12.45;;;18.10;99.90;;;;;;4855482;29;20046;-89
2022/08/28 18:17:15;;;;;;;23.27;9.30;;;18.10;99.90;;;;;;4855706;29;20068;-89
2022/08/28 18:19:42;;;;;;;13.88;10.57;;;18.00;99.90;;;;;;4856332;29;20041;-91
2022/08/28 18:22:11;;;;;;;8.05;6.97;;;17.90;99.90;;;;;;4840691;29;20049;-90
2022/08/28 18:24:40;;;;;;;11.45;9.35;;;17.90;99.90;;;;;;4842908;29;20058;-90
2022/08/28 18:27:08;;;;;;;15.05;9.15;;;17.80;99.90;;;;;;4856477;29;20080;-91
2022/08/28 18:29:38;;;;;;;10.85;9.02;;;17.90;99.90;;;;;;4842947;29;20482;-90
2022/08/28 18:32:09;;;;;;;12.25;9.25;;;17.90;99.90;;;;;;4872676;29;20065;-91
2022/08/28 18:34:37;;;;;;;12.52;9.77;;;17.90;99.90;;;;;;4856159;29;20057;-91
2022/08/28 18:37:05;;;;;;;11.80;9.48;;;17.80;99.90;;;;;;4855302;29;20522;-91
2022/08/28 18:39:34;;;;;;;11.57;9.63;;;17.80;99.90;;;;;;4838796;29;20069;-90
2022/08/28 18:42:02;;;;;;;16.23;9.85;;;17.80;99.90;;;;;;4840344;29;20065;-91
2022/08/28 18:44:36;;;;;;;9.63;7.93;;;17.90;99.90;;;;;;4840679;29;20404;-90
2022/08/28 18:47:04;;;;;;;12.50;8.38;;;17.70;99.90;;;;;;4840962;29;20046;-90
2022/08/28 18:49:32;;;;;;;14.00;10.07;;;17.70;99.90;;;;;;4840210;29;20491;-91
2022/08/28 18:52:00;;;;;;;9.88;8.10;;;17.70;99.90;;;;;;4826911;29;20065;-90
2022/08/28 18:54:30;;;;;;;16.00;8.70;;;17.60;99.90;;;;;;4842911;29;20065;-89
2022/08/28 18:56:59;;;;;;;15.57;8.32;;;17.60;99.90;;;;;;4873902;29;20057;-89
2022/08/28 18:59:32;;;;;;;10.13;7.65;;;17.50;99.90;;;;;;4858747;29;20053;-91
2022/08/28 19:01:59;;;;;;;19.85;10.07;;;17.50;99.90;;;;;;4843032;29;20412;-88
2022/08/28 19:04:28;;;;;;;11.43;8.52;;;17.50;99.90;;;;;;4874426;29;20076;-90
2022/08/28 19:06:55;;;;;;;10.25;8.30;;;17.40;99.90;;;;;;4858707;29;20057;-89
2022/08/28 19:09:26;;;;;;;11.85;9.93;;;17.40;99.90;;;;;;4873539;29;20064;-91
2022/08/28 19:12:02;;;;;;;13.05;10.35;;;17.40;99.90;;;;;;4843911;29;20062;-89
2022/08/28 19:14:30;;;;;;;11.73;9.60;;;17.30;99.90;;;;;;4858666;29;20064;-87
2022/08/28 19:16:58;;;;;;;17.73;10.90;;;17.30;99.90;;;;;;4844581;29;20069;-91
2022/08/28 19:19:32;;;;;;;15.48;9.23;;;17.30;99.90;;;;;;4874786;29;20050;-92
2022/08/28 19:22:00;;;;;;;20.60;10.57;;;17.30;99.90;;;;;;4844587;29;20407;-89
2022/08/28 19:24:34;;;;;;;12.27;9.43;;;17.20;99.90;;;;;;4859655;29;20475;-90
2022/08/28 19:27:03;;;;;;;13.70;11.10;;;17.10;99.90;;;;;;4850244;29;20056;-89
2022/08/28 19:29:37;;;;;;;11.13;8.75;;;17.10;99.90;;;;;;4844775;29;20046;-85
2022/08/28 19:32:06;;;;;;;12.63;9.50;;;17.00;99.90;;;;;;4859908;29;20065;-89
2022/08/28 19:34:38;;;;;;;9.02;7.70;;;16.90;99.90;;;;;;4842730;29;20053;-89
2022/08/28 19:37:06;;;;;;;10.40;7.43;;;17.00;99.90;;;;;;4858226;29;20069;-89
2022/08/28 19:39:37;;;;;;;9.88;7.60;;;17.00;99.90;;;;;;4873361;29;20049;-92
2022/08/28 19:42:05;;;;;;;12.48;9.65;;;17.00;99.90;;;;;;4843430;29;20054;-92
2022/08/28 19:44:43;;;;;;;11.40;8.63;;;16.90;99.90;;;;;;4817318;29;20064;-92
2022/08/28 19:47:12;;;;;;;11.88;10.23;;;16.90;99.90;;;;;;4807009;29;20053;-91
2022/08/28 19:50:09;;;;;;;9.70;7.03;;;17.00;99.90;;;;;;4817525;29;20053;-88
2022/08/28 19:52:55;;;;;;;10.45;8.27;;;16.90;99.90;;;;;;4807522;29;20050;-90
2022/08/28 19:55:50;;;;;;;7.88;5.93;;;16.90;99.90;;;;;;4741555;30;20055;-90
2022/08/28 19:58:18;;;;;;;14.27;7.40;;;16.80;99.90;;;;;;4746841;29;20055;-88
2022/08/28 20:00:49;;;;;;;56.60;10.88;;;16.60;99.90;;;;;;4755638;30;20056;-90
2022/08/28 20:03:21;;;;;;;20.85;8.82;;;16.60;99.90;;;;;;4787786;29;20049;-88
2022/08/28 20:05:53;;;;;;;44.20;9.20;;;16.50;99.90;;;;;;4815643;29;20045;-89
2022/08/28 20:08:22;;;;;;;12.57;10.60;;;16.40;99.90;;;;;;4839880;29;20058;-85
2022/08/28 20:10:50;;;;;;;24.65;11.25;;;16.40;99.90;;;;;;4836157;29;20053;-86
2022/08/28 20:13:18;;;;;;;10.43;8.00;;;16.30;99.90;;;;;;4875381;29;20049;-86
2022/08/28 20:15:47;;;;;;;8.93;7.93;;;16.30;99.90;;;;;;4876146;29;20072;-85
2022/08/28 20:18:16;;;;;;;14.88;10.70;;;16.40;99.90;;;;;;4870084;29;20057;-87
2022/08/28 20:20:46;;;;;;;11.77;8.85;;;16.40;99.90;;;;;;4825827;29;20058;-87
2022/08/28 20:23:16;;;;;;;9.48;6.95;;;16.40;99.90;;;;;;4852129;29;20062;-87
2022/08/28 20:25:48;;;;;;;16.70;11.23;;;16.40;99.90;;;;;;4839924;29;20065;-87
2022/08/28 20:28:18;;;;;;;22.80;10.30;;;16.50;99.90;;;;;;4824940;29;20058;-86
2022/08/28 20:30:53;;;;;;;17.45;12.82;;;16.50;99.90;;;;;;4842202;29;20442;-86
2022/08/28 20:33:21;;;;;;;23.08;12.80;;;16.50;99.90;;;;;;4849994;29;20064;-87
2022/08/28 20:36:02;;;;;;;25.67;11.75;;;16.50;99.90;;;;;;4857029;29;20068;-87
2022/08/28 20:38:31;;;;;;;37.90;14.30;;;16.60;99.90;;;;;;4872425;29;20531;-87
2022/08/28 20:41:06;;;;;;;12.00;9.20;;;16.50;99.90;;;;;;4851181;29;20053;-87
2022/08/28 20:43:45;;;;;;;13.52;9.05;;;16.50;99.90;;;;;;4841572;29;20053;-87
2022/08/28 20:46:16;;;;;;;12.43;8.77;;;16.40;99.90;;;;;;4856830;29;20065;-87